sensor_id;sensor_type;location;lat;lon;timestamp;P1;durP1;ratioP1;P2;durP2;ratioP2
2191;SDS011;1102;49.718;11.902;2023-03-26T00:01:11;1.40;;;1.10;;
2191;SDS011;1102;49.718;11.902;2023-03-26T00:03:41;1.33;;;1.23;;
2191;SDS011;1102;49.718;11.902;2023-03-26T00:06:13;1.60;;;1.20;;
2191;SDS011;1102;49.718;11.902;2023-03-26T00:08:51;3.50;;;1.50;;
2191;SDS011;1102;49.718;11.902;2023-03-26T00:11:27;1.13;;;1.00;;
2191;SDS011;1102;49.718;11.902;2023-03-26T00:13:55;6.83;;;1.77;;
2191;SDS011;1102;49.718;11.902;2023-03-26T00:16:24;1.57;;;1.17;;
2191;SDS011;1102;49.718;11.902;2023-03-26T00:18:53;1.77;;;1.23;;
2191;SDS011;1102;49.718;11.902;2023-03-26T00:21:21;2.20;;;1.40;;
2191;SDS011;1102;49.718;11.902;2023-03-26T00:23:54;2.10;;;1.30;;
2191;SDS011;1102;49.718;11.902;2023-03-26T00:26:24;3.27;;;1.90;;
2191;SDS011;1102;49.718;11.902;2023-03-26T00:28:52;4.30;;;1.77;;
2191;SDS011;1102;49.718;11.902;2023-03-26T00:31:20;2.33;;;1.67;;
2191;SDS011;1102;49.718;11.902;2023-03-26T00:33:47;1.13;;;1.03;;
2191;SDS011;1102;49.718;11.902;2023-03-26T00:36:21;1.10;;;1.00;;
2191;SDS011;1102;49.718;11.902;2023-03-26T00:38:51;4.50;;;1.33;;
2191;SDS011;1102;49.718;11.902;2023-03-26T00:41:20;2.60;;;1.40;;
2191;SDS011;1102;49.718;11.902;2023-03-26T00:43:53;1.40;;;1.10;;
2191;SDS011;1102;49.718;11.902;2023-03-26T00:46:23;2.67;;;1.80;;
2191;SDS011;1102;49.718;11.902;2023-03-26T00:48:51;4.77;;;1.60;;
2191;SDS011;1102;49.718;11.902;2023-03-26T00:51:18;2.07;;;1.30;;
2191;SDS011;1102;49.718;11.902;2023-03-26T00:53:47;1.07;;;1.03;;
2191;SDS011;1102;49.718;11.902;2023-03-26T00:56:15;2.40;;;1.43;;
2191;SDS011;1102;49.718;11.902;2023-03-26T00:58:42;5.40;;;1.60;;
2191;SDS011;1102;49.718;11.902;2023-03-26T01:01:14;2.20;;;1.13;;
2191;SDS011;1102;49.718;11.902;2023-03-26T01:03:44;2.70;;;1.47;;
2191;SDS011;1102;49.718;11.902;2023-03-26T01:06:32;4.93;;;1.33;;
2191;SDS011;1102;49.718;11.902;2023-03-26T01:09:15;2.30;;;1.33;;
2191;SDS011;1102;49.718;11.902;2023-03-26T01:11:45;5.10;;;1.60;;
2191;SDS011;1102;49.718;11.902;2023-03-26T01:14:17;3.17;;;1.70;;
2191;SDS011;1102;49.718;11.902;2023-03-26T01:16:51;3.00;;;1.60;;
2191;SDS011;1102;49.718;11.902;2023-03-26T01:22:04;6.33;;;1.37;;
2191;SDS011;1102;49.718;11.902;2023-03-26T01:24:37;1.80;;;1.23;;
2191;SDS011;1102;49.718;11.902;2023-03-26T01:35:19;1.90;;;1.60;;
2191;SDS011;1102;49.718;11.902;2023-03-26T01:38:00;3.17;;;1.57;;
2191;SDS011;1102;49.718;11.902;2023-03-26T01:43:16;4.83;;;1.57;;
2191;SDS011;1102;49.718;11.902;2023-03-26T01:45:46;2.40;;;1.67;;
2191;SDS011;1102;49.718;11.902;2023-03-26T01:48:15;1.77;;;1.17;;
2191;SDS011;1102;49.718;11.902;2023-03-26T01:50:42;1.30;;;1.20;;
2191;SDS011;1102;49.718;11.902;2023-03-26T01:53:10;2.17;;;1.80;;
2191;SDS011;1102;49.718;11.902;2023-03-26T01:58:26;2.30;;;1.63;;
2191;SDS011;1102;49.718;11.902;2023-03-26T02:03:56;3.57;;;1.30;;
2191;SDS011;1102;49.718;11.902;2023-03-26T02:06:35;3.50;;;1.50;;
2191;SDS011;1102;49.718;11.902;2023-03-26T02:09:04;2.30;;;1.30;;
2191;SDS011;1102;49.718;11.902;2023-03-26T02:11:34;3.10;;;1.20;;
2191;SDS011;1102;49.718;11.902;2023-03-26T02:14:04;3.03;;;2.00;;
2191;SDS011;1102;49.718;11.902;2023-03-26T02:16:32;1.93;;;1.33;;
2191;SDS011;1102;49.718;11.902;2023-03-26T02:18:59;4.03;;;1.60;;
2191;SDS011;1102;49.718;11.902;2023-03-26T02:21:26;4.10;;;1.60;;
2191;SDS011;1102;49.718;11.902;2023-03-26T02:23:54;2.33;;;1.40;;
2191;SDS011;1102;49.718;11.902;2023-03-26T02:26:33;4.87;;;1.83;;
2191;SDS011;1102;49.718;11.902;2023-03-26T02:29:09;2.90;;;1.47;;
2191;SDS011;1102;49.718;11.902;2023-03-26T02:31:40;5.70;;;1.60;;
2191;SDS011;1102;49.718;11.902;2023-03-26T02:34:06;5.63;;;2.33;;
2191;SDS011;1102;49.718;11.902;2023-03-26T02:36:35;2.40;;;2.10;;
2191;SDS011;1102;49.718;11.902;2023-03-26T02:39:03;5.60;;;1.83;;
2191;SDS011;1102;49.718;11.902;2023-03-26T02:41:34;4.33;;;1.53;;
2191;SDS011;1102;49.718;11.902;2023-03-26T02:44:05;3.20;;;1.60;;
2191;SDS011;1102;49.718;11.902;2023-03-26T02:46:52;7.80;;;2.13;;
2191;SDS011;1102;49.718;11.902;2023-03-26T02:49:39;4.00;;;1.60;;
2191;SDS011;1102;49.718;11.902;2023-03-26T02:52:06;3.30;;;1.50;;
2191;SDS011;1102;49.718;11.902;2023-03-26T02:54:34;2.87;;;1.70;;
2191;SDS011;1102;49.718;11.902;2023-03-26T02:57:06;3.40;;;1.80;;
2191;SDS011;1102;49.718;11.902;2023-03-26T02:59:53;6.07;;;1.60;;
2191;SDS011;1102;49.718;11.902;2023-03-26T03:02:49;7.30;;;1.60;;
2191;SDS011;1102;49.718;11.902;2023-03-26T03:05:18;3.77;;;1.20;;
2191;SDS011;1102;49.718;11.902;2023-03-26T03:07:51;4.40;;;2.40;;
2191;SDS011;1102;49.718;11.902;2023-03-26T03:10:25;5.37;;;1.77;;
2191;SDS011;1102;49.718;11.902;2023-03-26T03:13:07;6.80;;;1.80;;
2191;SDS011;1102;49.718;11.902;2023-03-26T03:15:34;1.80;;;1.50;;
2191;SDS011;1102;49.718;11.902;2023-03-26T03:18:02;4.40;;;1.80;;
2191;SDS011;1102;49.718;11.902;2023-03-26T03:20:31;3.17;;;1.77;;
2191;SDS011;1102;49.718;11.902;2023-03-26T03:23:00;3.10;;;1.90;;
2191;SDS011;1102;49.718;11.902;2023-03-26T03:25:28;7.00;;;2.03;;
2191;SDS011;1102;49.718;11.902;2023-03-26T03:27:55;4.20;;;1.63;;
2191;SDS011;1102;49.718;11.902;2023-03-26T03:30:22;6.10;;;2.00;;
2191;SDS011;1102;49.718;11.902;2023-03-26T03:33:11;4.17;;;1.63;;
2191;SDS011;1102;49.718;11.902;2023-03-26T03:35:38;4.43;;;1.90;;
2191;SDS011;1102;49.718;11.902;2023-03-26T03:38:07;4.10;;;1.90;;
2191;SDS011;1102;49.718;11.902;2023-03-26T03:40:42;2.40;;;1.60;;
2191;SDS011;1102;49.718;11.902;2023-03-26T03:43:09;4.00;;;1.57;;
2191;SDS011;1102;49.718;11.902;2023-03-26T03:45:46;8.93;;;2.20;;
2191;SDS011;1102;49.718;11.902;2023-03-26T03:48:33;5.80;;;1.67;;
2191;SDS011;1102;49.718;11.902;2023-03-26T03:51:04;7.23;;;2.00;;
2191;SDS011;1102;49.718;11.902;2023-03-26T03:54:00;4.83;;;1.93;;
2191;SDS011;1102;49.718;11.902;2023-03-26T03:56:50;2.47;;;1.33;;
2191;SDS011;1102;49.718;11.902;2023-03-26T03:59:37;5.07;;;2.23;;
2191;SDS011;1102;49.718;11.902;2023-03-26T04:02:12;4.77;;;1.60;;
2191;SDS011;1102;49.718;11.902;2023-03-26T04:04:47;8.10;;;1.50;;
2191;SDS011;1102;49.718;11.902;2023-03-26T04:07:17;7.80;;;2.20;;
2191;SDS011;1102;49.718;11.902;2023-03-26T04:10:03;18.83;;;2.67;;
2191;SDS011;1102;49.718;11.902;2023-03-26T04:13:06;2.97;;;1.80;;
2191;SDS011;1102;49.718;11.902;2023-03-26T04:15:56;6.57;;;2.10;;
2191;SDS011;1102;49.718;11.902;2023-03-26T04:18:23;4.53;;;1.97;;
2191;SDS011;1102;49.718;11.902;2023-03-26T04:20:52;3.40;;;1.93;;
2191;SDS011;1102;49.718;11.902;2023-03-26T04:23:24;5.37;;;1.87;;
2191;SDS011;1102;49.718;11.902;2023-03-26T04:25:59;5.80;;;2.53;;
2191;SDS011;1102;49.718;11.902;2023-03-26T04:28:53;8.43;;;2.47;;
2191;SDS011;1102;49.718;11.902;2023-03-26T04:31:27;5.10;;;1.63;;
2191;SDS011;1102;49.718;11.902;2023-03-26T04:34:08;7.20;;;2.90;;
2191;SDS011;1102;49.718;11.902;2023-03-26T04:36:49;4.37;;;1.83;;
2191;SDS011;1102;49.718;11.902;2023-03-26T04:39:22;7.50;;;2.03;;
2191;SDS011;1102;49.718;11.902;2023-03-26T04:42:13;5.73;;;2.03;;
2191;SDS011;1102;49.718;11.902;2023-03-26T04:44:54;12.90;;;2.70;;
2191;SDS011;1102;49.718;11.902;2023-03-26T04:47:21;3.47;;;2.10;;
2191;SDS011;1102;49.718;11.902;2023-03-26T04:49:48;6.17;;;1.93;;
2191;SDS011;1102;49.718;11.902;2023-03-26T04:52:16;4.13;;;2.10;;
2191;SDS011;1102;49.718;11.902;2023-03-26T04:54:55;4.10;;;2.47;;
2191;SDS011;1102;49.718;11.902;2023-03-26T05:00:04;8.70;;;1.73;;
2191;SDS011;1102;49.718;11.902;2023-03-26T05:02:45;14.97;;;2.47;;
2191;SDS011;1102;49.718;11.902;2023-03-26T05:05:16;5.10;;;2.93;;
2191;SDS011;1102;49.718;11.902;2023-03-26T05:07:43;5.70;;;2.03;;
2191;SDS011;1102;49.718;11.902;2023-03-26T05:10:14;5.63;;;2.73;;
2191;SDS011;1102;49.718;11.902;2023-03-26T05:12:47;13.00;;;2.90;;
2191;SDS011;1102;49.718;11.902;2023-03-26T05:15:24;4.67;;;1.97;;
2191;SDS011;1102;49.718;11.902;2023-03-26T05:18:29;2.40;;;1.60;;
2191;SDS011;1102;49.718;11.902;2023-03-26T05:20:58;5.43;;;1.70;;
2191;SDS011;1102;49.718;11.902;2023-03-26T05:23:26;3.73;;;1.67;;
2191;SDS011;1102;49.718;11.902;2023-03-26T05:26:07;5.33;;;1.87;;
2191;SDS011;1102;49.718;11.902;2023-03-26T05:28:35;2.47;;;2.07;;
2191;SDS011;1102;49.718;11.902;2023-03-26T05:31:13;3.77;;;2.20;;
2191;SDS011;1102;49.718;11.902;2023-03-26T05:33:46;5.63;;;2.67;;
2191;SDS011;1102;49.718;11.902;2023-03-26T05:36:14;9.73;;;3.33;;
2191;SDS011;1102;49.718;11.902;2023-03-26T05:38:46;4.63;;;2.10;;
2191;SDS011;1102;49.718;11.902;2023-03-26T05:41:34;2.60;;;2.07;;
2191;SDS011;1102;49.718;11.902;2023-03-26T05:44:01;4.03;;;2.43;;
2191;SDS011;1102;49.718;11.902;2023-03-26T05:46:29;7.93;;;2.47;;
2191;SDS011;1102;49.718;11.902;2023-03-26T05:48:56;7.40;;;3.80;;
2191;SDS011;1102;49.718;11.902;2023-03-26T05:51:23;9.60;;;3.63;;
2191;SDS011;1102;49.718;11.902;2023-03-26T05:54:00;5.10;;;3.23;;
2191;SDS011;1102;49.718;11.902;2023-03-26T05:57:02;5.40;;;2.20;;
2191;SDS011;1102;49.718;11.902;2023-03-26T05:59:48;8.87;;;3.67;;
2191;SDS011;1102;49.718;11.902;2023-03-26T06:02:34;8.53;;;2.77;;
2191;SDS011;1102;49.718;11.902;2023-03-26T06:05:19;6.70;;;1.93;;
2191;SDS011;1102;49.718;11.902;2023-03-26T06:08:06;5.20;;;2.27;;
2191;SDS011;1102;49.718;11.902;2023-03-26T06:10:36;4.53;;;3.00;;
2191;SDS011;1102;49.718;11.902;2023-03-26T06:13:04;6.13;;;2.37;;
2191;SDS011;1102;49.718;11.902;2023-03-26T06:15:34;7.30;;;2.00;;
2191;SDS011;1102;49.718;11.902;2023-03-26T06:18:13;6.10;;;2.70;;
2191;SDS011;1102;49.718;11.902;2023-03-26T06:21:06;9.10;;;2.50;;
2191;SDS011;1102;49.718;11.902;2023-03-26T06:23:42;7.50;;;2.90;;
2191;SDS011;1102;49.718;11.902;2023-03-26T06:26:25;7.03;;;3.47;;
2191;SDS011;1102;49.718;11.902;2023-03-26T06:29:18;7.43;;;3.23;;
2191;SDS011;1102;49.718;11.902;2023-03-26T06:32:03;7.10;;;2.30;;
2191;SDS011;1102;49.718;11.902;2023-03-26T06:34:49;5.73;;;2.30;;
2191;SDS011;1102;49.718;11.902;2023-03-26T06:37:16;32.27;;;13.30;;
2191;SDS011;1102;49.718;11.902;2023-03-26T06:39:55;15.77;;;9.67;;
2191;SDS011;1102;49.718;11.902;2023-03-26T06:42:41;12.10;;;6.30;;
2191;SDS011;1102;49.718;11.902;2023-03-26T06:45:52;9.97;;;2.80;;
2191;SDS011;1102;49.718;11.902;2023-03-26T06:48:27;5.43;;;2.40;;
2191;SDS011;1102;49.718;11.902;2023-03-26T06:51:11;7.93;;;2.60;;
2191;SDS011;1102;49.718;11.902;2023-03-26T06:53:57;11.17;;;2.53;;
2191;SDS011;1102;49.718;11.902;2023-03-26T06:56:41;6.67;;;2.30;;
2191;SDS011;1102;49.718;11.902;2023-03-26T06:59:26;8.03;;;2.60;;
2191;SDS011;1102;49.718;11.902;2023-03-26T07:02:12;3.10;;;1.80;;
2191;SDS011;1102;49.718;11.902;2023-03-26T07:04:57;10.07;;;3.40;;
2191;SDS011;1102;49.718;11.902;2023-03-26T07:07:43;6.03;;;2.33;;
2191;SDS011;1102;49.718;11.902;2023-03-26T07:10:31;3.87;;;1.90;;
2191;SDS011;1102;49.718;11.902;2023-03-26T07:13:16;6.80;;;3.17;;
2191;SDS011;1102;49.718;11.902;2023-03-26T07:16:22;10.33;;;3.63;;
2191;SDS011;1102;49.718;11.902;2023-03-26T07:19:11;5.50;;;3.77;;
2191;SDS011;1102;49.718;11.902;2023-03-26T07:21:40;6.47;;;2.47;;
2191;SDS011;1102;49.718;11.902;2023-03-26T07:24:42;7.93;;;3.57;;
2191;SDS011;1102;49.718;11.902;2023-03-26T07:33:44;6.00;;;3.13;;
2191;SDS011;1102;49.718;11.902;2023-03-26T07:39:39;7.40;;;3.33;;
2191;SDS011;1102;49.718;11.902;2023-03-26T07:43:06;2.97;;;2.37;;
2191;SDS011;1102;49.718;11.902;2023-03-26T07:46:11;6.50;;;2.70;;
2191;SDS011;1102;49.718;11.902;2023-03-26T07:48:59;5.67;;;1.90;;
2191;SDS011;1102;49.718;11.902;2023-03-26T07:51:52;6.00;;;2.07;;
2191;SDS011;1102;49.718;11.902;2023-03-26T07:54:42;6.07;;;2.13;;
2191;SDS011;1102;49.718;11.902;2023-03-26T08:00:25;11.47;;;2.70;;
2191;SDS011;1102;49.718;11.902;2023-03-26T08:06:08;7.10;;;3.20;;
2191;SDS011;1102;49.718;11.902;2023-03-26T08:09:04;6.43;;;2.83;;
2191;SDS011;1102;49.718;11.902;2023-03-26T08:12:40;7.40;;;1.90;;
2191;SDS011;1102;49.718;11.902;2023-03-26T08:15:34;9.50;;;4.37;;
2191;SDS011;1102;49.718;11.902;2023-03-26T08:20:54;5.63;;;2.50;;
2191;SDS011;1102;49.718;11.902;2023-03-26T08:23:47;5.60;;;2.80;;
2191;SDS011;1102;49.718;11.902;2023-03-26T08:26:42;5.07;;;2.00;;
2191;SDS011;1102;49.718;11.902;2023-03-26T08:32:02;8.27;;;2.30;;
2191;SDS011;1102;49.718;11.902;2023-03-26T08:34:31;9.00;;;2.40;;
2191;SDS011;1102;49.718;11.902;2023-03-26T08:36:57;4.60;;;2.30;;
2191;SDS011;1102;49.718;11.902;2023-03-26T08:39:24;8.80;;;2.70;;
2191;SDS011;1102;49.718;11.902;2023-03-26T08:52:40;9.67;;;3.97;;
2191;SDS011;1102;49.718;11.902;2023-03-26T09:37:57;6.00;;;3.03;;
2191;SDS011;1102;49.718;11.902;2023-03-26T09:41:01;3.50;;;2.30;;
2191;SDS011;1102;49.718;11.902;2023-03-26T09:43:51;29.60;;;16.80;;
2191;SDS011;1102;49.718;11.902;2023-03-26T10:03:19;14.73;;;8.80;;
2191;SDS011;1102;49.718;11.902;2023-03-26T10:20:32;10.77;;;4.43;;
2191;SDS011;1102;49.718;11.902;2023-03-26T10:51:31;11.33;;;2.30;;
2191;SDS011;1102;49.718;11.902;2023-03-26T10:57:32;9.43;;;2.70;;
2191;SDS011;1102;49.718;11.902;2023-03-26T11:00:12;6.17;;;2.53;;
2191;SDS011;1102;49.718;11.902;2023-03-26T11:08:20;2.90;;;2.10;;
2191;SDS011;1102;49.718;11.902;2023-03-26T11:13:45;4.37;;;1.93;;
2191;SDS011;1102;49.718;11.902;2023-03-26T11:19:08;5.00;;;2.33;;
2191;SDS011;1102;49.718;11.902;2023-03-26T11:24:25;12.23;;;2.67;;
2191;SDS011;1102;49.718;11.902;2023-03-26T11:29:44;2.73;;;1.67;;
2191;SDS011;1102;49.718;11.902;2023-03-26T11:32:35;3.67;;;1.57;;
2191;SDS011;1102;49.718;11.902;2023-03-26T11:35:18;2.80;;;1.83;;
2191;SDS011;1102;49.718;11.902;2023-03-26T11:40:41;3.77;;;1.87;;
2191;SDS011;1102;49.718;11.902;2023-03-26T11:43:23;3.40;;;1.90;;
2191;SDS011;1102;49.718;11.902;2023-03-26T11:45:55;2.23;;;2.03;;
2191;SDS011;1102;49.718;11.902;2023-03-26T11:48:24;4.87;;;2.83;;
2191;SDS011;1102;49.718;11.902;2023-03-26T11:51:09;5.73;;;2.00;;
2191;SDS011;1102;49.718;11.902;2023-03-26T11:53:43;5.23;;;2.50;;
2191;SDS011;1102;49.718;11.902;2023-03-26T11:59:00;5.73;;;2.97;;
2191;SDS011;1102;49.718;11.902;2023-03-26T12:04:24;5.10;;;2.10;;
2191;SDS011;1102;49.718;11.902;2023-03-26T12:06:58;2.63;;;2.23;;
2191;SDS011;1102;49.718;11.902;2023-03-26T12:09:33;7.67;;;2.20;;
2191;SDS011;1102;49.718;11.902;2023-03-26T12:12:01;3.67;;;1.93;;
2191;SDS011;1102;49.718;11.902;2023-03-26T12:14:31;4.77;;;1.80;;
2191;SDS011;1102;49.718;11.902;2023-03-26T12:19:27;3.87;;;2.07;;
2191;SDS011;1102;49.718;11.902;2023-03-26T12:22:01;4.50;;;2.47;;
2191;SDS011;1102;49.718;11.902;2023-03-26T12:24:29;2.43;;;1.77;;
2191;SDS011;1102;49.718;11.902;2023-03-26T12:26:59;4.83;;;2.13;;
2191;SDS011;1102;49.718;11.902;2023-03-26T12:29:28;3.67;;;2.50;;
2191;SDS011;1102;49.718;11.902;2023-03-26T12:32:07;5.50;;;2.30;;
2191;SDS011;1102;49.718;11.902;2023-03-26T12:34:39;5.83;;;2.50;;
2191;SDS011;1102;49.718;11.902;2023-03-26T12:37:07;2.40;;;1.80;;
2191;SDS011;1102;49.718;11.902;2023-03-26T12:40:22;6.60;;;2.50;;
2191;SDS011;1102;49.718;11.902;2023-03-26T12:42:57;5.00;;;2.80;;
2191;SDS011;1102;49.718;11.902;2023-03-26T12:45:47;6.30;;;2.40;;
2191;SDS011;1102;49.718;11.902;2023-03-26T12:48:36;2.90;;;2.10;;
2191;SDS011;1102;49.718;11.902;2023-03-26T12:51:06;3.67;;;2.50;;
2191;SDS011;1102;49.718;11.902;2023-03-26T12:56:25;2.57;;;2.37;;
2191;SDS011;1102;49.718;11.902;2023-03-26T12:59:08;2.50;;;1.63;;
2191;SDS011;1102;49.718;11.902;2023-03-26T13:02:13;4.30;;;1.70;;
2191;SDS011;1102;49.718;11.902;2023-03-26T13:04:50;2.73;;;1.73;;
2191;SDS011;1102;49.718;11.902;2023-03-26T13:16:24;4.20;;;2.30;;
2191;SDS011;1102;49.718;11.902;2023-03-26T13:22:27;2.20;;;1.53;;
2191;SDS011;1102;49.718;11.902;2023-03-26T13:33:20;3.10;;;1.57;;
2191;SDS011;1102;49.718;11.902;2023-03-26T13:36:04;1.50;;;1.23;;
2191;SDS011;1102;49.718;11.902;2023-03-26T13:39:01;2.27;;;1.60;;
2191;SDS011;1102;49.718;11.902;2023-03-26T13:46:46;3.57;;;2.03;;
2191;SDS011;1102;49.718;11.902;2023-03-26T13:52:14;3.07;;;1.63;;
2191;SDS011;1102;49.718;11.902;2023-03-26T13:58:33;3.10;;;1.70;;
2191;SDS011;1102;49.718;11.902;2023-03-26T14:09:30;2.50;;;1.80;;
2191;SDS011;1102;49.718;11.902;2023-03-26T14:28:47;2.70;;;1.57;;
2191;SDS011;1102;49.718;11.902;2023-03-26T14:31:32;2.60;;;1.33;;
2191;SDS011;1102;49.718;11.902;2023-03-26T14:43:02;1.80;;;1.70;;
2191;SDS011;1102;49.718;11.902;2023-03-26T14:54:47;3.00;;;2.20;;
2191;SDS011;1102;49.718;11.902;2023-03-26T15:33:30;2.83;;;1.53;;
2191;SDS011;1102;49.718;11.902;2023-03-26T15:44:50;3.93;;;2.53;;
2191;SDS011;1102;49.718;11.902;2023-03-26T15:50:19;3.20;;;1.93;;
2191;SDS011;1102;49.718;11.902;2023-03-26T15:52:51;2.70;;;2.23;;
2191;SDS011;1102;49.718;11.902;2023-03-26T16:01:16;2.87;;;1.63;;
2191;SDS011;1102;49.718;11.902;2023-03-26T16:04:18;1.97;;;1.50;;
2191;SDS011;1102;49.718;11.902;2023-03-26T16:12:27;5.03;;;3.27;;
2191;SDS011;1102;49.718;11.902;2023-03-26T16:29:21;3.50;;;2.27;;
2191;SDS011;1102;49.718;11.902;2023-03-26T16:51:47;2.60;;;1.70;;
2191;SDS011;1102;49.718;11.902;2023-03-26T16:54:22;1.83;;;1.27;;
2191;SDS011;1102;49.718;11.902;2023-03-26T16:59:56;1.53;;;1.30;;
2191;SDS011;1102;49.718;11.902;2023-03-26T17:02:41;2.07;;;1.60;;
2191;SDS011;1102;49.718;11.902;2023-03-26T17:08:20;2.60;;;1.10;;
2191;SDS011;1102;49.718;11.902;2023-03-26T17:16:41;12.77;;;9.40;;
2191;SDS011;1102;49.718;11.902;2023-03-26T17:19:28;14.60;;;12.93;;
2191;SDS011;1102;49.718;11.902;2023-03-26T17:29:39;3.50;;;2.60;;
2191;SDS011;1102;49.718;11.902;2023-03-26T17:40:44;11.37;;;3.57;;
2191;SDS011;1102;49.718;11.902;2023-03-26T17:48:53;5.47;;;3.73;;
2191;SDS011;1102;49.718;11.902;2023-03-26T17:51:30;5.13;;;4.50;;
2191;SDS011;1102;49.718;11.902;2023-03-26T17:54:39;8.73;;;6.10;;
2191;SDS011;1102;49.718;11.902;2023-03-26T17:57:19;14.00;;;8.73;;
2191;SDS011;1102;49.718;11.902;2023-03-26T17:59:56;9.27;;;8.10;;
2191;SDS011;1102;49.718;11.902;2023-03-26T18:02:37;7.37;;;5.83;;
2191;SDS011;1102;49.718;11.902;2023-03-26T18:05:09;6.10;;;5.50;;
2191;SDS011;1102;49.718;11.902;2023-03-26T18:13:47;9.27;;;6.30;;
2191;SDS011;1102;49.718;11.902;2023-03-26T18:19:02;11.63;;;7.23;;
2191;SDS011;1102;49.718;11.902;2023-03-26T18:21:43;8.57;;;6.70;;
2191;SDS011;1102;49.718;11.902;2023-03-26T18:27:00;6.87;;;6.10;;
2191;SDS011;1102;49.718;11.902;2023-03-26T18:29:32;7.10;;;6.40;;
2191;SDS011;1102;49.718;11.902;2023-03-26T18:34:44;8.43;;;7.63;;
2191;SDS011;1102;49.718;11.902;2023-03-26T18:37:18;11.27;;;9.87;;
2191;SDS011;1102;49.718;11.902;2023-03-26T18:42:28;11.60;;;10.40;;
2191;SDS011;1102;49.718;11.902;2023-03-26T18:45:05;16.50;;;10.47;;
2191;SDS011;1102;49.718;11.902;2023-03-26T18:48:00;9.40;;;8.57;;
2191;SDS011;1102;49.718;11.902;2023-03-26T18:50:34;12.87;;;8.70;;
2191;SDS011;1102;49.718;11.902;2023-03-26T18:53:04;10.67;;;9.67;;
2191;SDS011;1102;49.718;11.902;2023-03-26T18:55:34;11.00;;;9.57;;
2191;SDS011;1102;49.718;11.902;2023-03-26T19:00:47;10.73;;;9.60;;
2191;SDS011;1102;49.718;11.902;2023-03-26T19:03:15;11.60;;;10.43;;
2191;SDS011;1102;49.718;11.902;2023-03-26T19:05:47;14.30;;;11.00;;
2191;SDS011;1102;49.718;11.902;2023-03-26T19:08:17;11.00;;;9.83;;
2191;SDS011;1102;49.718;11.902;2023-03-26T19:10:49;15.83;;;11.57;;
2191;SDS011;1102;49.718;11.902;2023-03-26T19:13:18;11.70;;;10.50;;
2191;SDS011;1102;49.718;11.902;2023-03-26T19:15:48;11.57;;;10.47;;
2191;SDS011;1102;49.718;11.902;2023-03-26T19:18:25;11.37;;;10.17;;
2191;SDS011;1102;49.718;11.902;2023-03-26T19:21:01;12.90;;;9.57;;
2191;SDS011;1102;49.718;11.902;2023-03-26T19:23:36;11.60;;;9.83;;
2191;SDS011;1102;49.718;11.902;2023-03-26T19:26:07;11.20;;;10.20;;
2191;SDS011;1102;49.718;11.902;2023-03-26T19:28:41;11.33;;;9.23;;
2191;SDS011;1102;49.718;11.902;2023-03-26T19:33:42;8.97;;;8.27;;
2191;SDS011;1102;49.718;11.902;2023-03-26T19:38:43;5.37;;;4.87;;
2191;SDS011;1102;49.718;11.902;2023-03-26T19:41:31;5.17;;;4.67;;
2191;SDS011;1102;49.718;11.902;2023-03-26T19:44:11;6.13;;;5.53;;
2191;SDS011;1102;49.718;11.902;2023-03-26T19:46:42;5.17;;;4.17;;
2191;SDS011;1102;49.718;11.902;2023-03-26T19:49:39;7.73;;;4.73;;
2191;SDS011;1102;49.718;11.902;2023-03-26T19:52:14;7.00;;;6.30;;
2191;SDS011;1102;49.718;11.902;2023-03-26T19:57:29;5.33;;;3.90;;
2191;SDS011;1102;49.718;11.902;2023-03-26T19:59:58;5.70;;;3.90;;
2191;SDS011;1102;49.718;11.902;2023-03-26T20:02:25;3.70;;;3.07;;
2191;SDS011;1102;49.718;11.902;2023-03-26T20:04:53;5.93;;;3.60;;
2191;SDS011;1102;49.718;11.902;2023-03-26T20:07:20;2.47;;;2.27;;
2191;SDS011;1102;49.718;11.902;2023-03-26T20:10:02;2.17;;;1.90;;
2191;SDS011;1102;49.718;11.902;2023-03-26T20:12:31;2.27;;;2.07;;
2191;SDS011;1102;49.718;11.902;2023-03-26T20:14:58;2.63;;;2.40;;
2191;SDS011;1102;49.718;11.902;2023-03-26T20:17:26;5.03;;;3.70;;
2191;SDS011;1102;49.718;11.902;2023-03-26T20:19:56;3.80;;;3.50;;
2191;SDS011;1102;49.718;11.902;2023-03-26T20:22:22;3.20;;;1.60;;
2191;SDS011;1102;49.718;11.902;2023-03-26T20:24:49;5.33;;;3.60;;
2191;SDS011;1102;49.718;11.902;2023-03-26T20:27:16;2.30;;;1.83;;
2191;SDS011;1102;49.718;11.902;2023-03-26T20:29:44;1.60;;;1.50;;
2191;SDS011;1102;49.718;11.902;2023-03-26T20:32:18;5.40;;;1.90;;
2191;SDS011;1102;49.718;11.902;2023-03-26T20:34:50;8.93;;;2.80;;
2191;SDS011;1102;49.718;11.902;2023-03-26T20:37:17;3.50;;;1.60;;
2191;SDS011;1102;49.718;11.902;2023-03-26T20:39:43;4.50;;;1.53;;
2191;SDS011;1102;49.718;11.902;2023-03-26T20:42:11;1.77;;;1.60;;
2191;SDS011;1102;49.718;11.902;2023-03-26T20:44:41;3.10;;;2.80;;
2191;SDS011;1102;49.718;11.902;2023-03-26T20:47:11;2.00;;;1.60;;
2191;SDS011;1102;49.718;11.902;2023-03-26T20:49:38;2.67;;;2.03;;
2191;SDS011;1102;49.718;11.902;2023-03-26T20:52:05;4.17;;;2.30;;
2191;SDS011;1102;49.718;11.902;2023-03-26T20:54:32;2.50;;;2.30;;
2191;SDS011;1102;49.718;11.902;2023-03-26T20:56:58;1.60;;;1.50;;
2191;SDS011;1102;49.718;11.902;2023-03-26T20:59:26;2.37;;;1.60;;
2191;SDS011;1102;49.718;11.902;2023-03-26T21:01:53;2.77;;;1.97;;
2191;SDS011;1102;49.718;11.902;2023-03-26T21:04:22;3.50;;;2.80;;
2191;SDS011;1102;49.718;11.902;2023-03-26T21:06:49;1.50;;;1.40;;
2191;SDS011;1102;49.718;11.902;2023-03-26T21:09:21;2.43;;;1.50;;
2191;SDS011;1102;49.718;11.902;2023-03-26T21:11:51;2.70;;;1.90;;
2191;SDS011;1102;49.718;11.902;2023-03-26T21:17:12;2.10;;;1.30;;
2191;SDS011;1102;49.718;11.902;2023-03-26T21:19:41;3.67;;;2.80;;
2191;SDS011;1102;49.718;11.902;2023-03-26T21:22:29;2.50;;;1.90;;
2191;SDS011;1102;49.718;11.902;2023-03-26T21:30:22;1.57;;;1.47;;
2191;SDS011;1102;49.718;11.902;2023-03-26T21:32:49;1.40;;;1.20;;
2191;SDS011;1102;49.718;11.902;2023-03-26T21:35:17;1.20;;;1.03;;
2191;SDS011;1102;49.718;11.902;2023-03-26T21:37:44;3.53;;;1.60;;
2191;SDS011;1102;49.718;11.902;2023-03-26T21:40:14;1.57;;;1.00;;
2191;SDS011;1102;49.718;11.902;2023-03-26T21:42:52;4.83;;;1.00;;
2191;SDS011;1102;49.718;11.902;2023-03-26T21:45:20;1.10;;;1.00;;
2191;SDS011;1102;49.718;11.902;2023-03-26T21:47:47;1.97;;;1.13;;
2191;SDS011;1102;49.718;11.902;2023-03-26T21:50:15;1.40;;;1.17;;
2191;SDS011;1102;49.718;11.902;2023-03-26T21:53:03;1.10;;;0.90;;
2191;SDS011;1102;49.718;11.902;2023-03-26T21:55:32;2.97;;;1.33;;
2191;SDS011;1102;49.718;11.902;2023-03-26T22:04:18;2.40;;;1.10;;
2191;SDS011;1102;49.718;11.902;2023-03-26T22:09:12;1.13;;;0.80;;
2191;SDS011;1102;49.718;11.902;2023-03-26T22:11:43;1.87;;;1.13;;
2191;SDS011;1102;49.718;11.902;2023-03-26T22:14:10;1.10;;;1.00;;
2191;SDS011;1102;49.718;11.902;2023-03-26T22:16:39;1.63;;;0.90;;
2191;SDS011;1102;49.718;11.902;2023-03-26T22:19:06;1.13;;;1.03;;
2191;SDS011;1102;49.718;11.902;2023-03-26T22:21:34;1.10;;;1.00;;
2191;SDS011;1102;49.718;11.902;2023-03-26T22:24:01;1.83;;;1.20;;
2191;SDS011;1102;49.718;11.902;2023-03-26T22:26:29;1.23;;;0.90;;
2191;SDS011;1102;49.718;11.902;2023-03-26T22:28:56;1.07;;;1.03;;
2191;SDS011;1102;49.718;11.902;2023-03-26T22:31:23;1.53;;;1.00;;
2191;SDS011;1102;49.718;11.902;2023-03-26T22:33:52;2.40;;;1.97;;
2191;SDS011;1102;49.718;11.902;2023-03-26T22:36:20;2.53;;;1.17;;
2191;SDS011;1102;49.718;11.902;2023-03-26T22:39:07;1.53;;;1.30;;
2191;SDS011;1102;49.718;11.902;2023-03-26T22:41:33;2.10;;;1.20;;
2191;SDS011;1102;49.718;11.902;2023-03-26T22:44:00;2.80;;;1.40;;
2191;SDS011;1102;49.718;11.902;2023-03-26T22:46:44;1.40;;;1.20;;
2191;SDS011;1102;49.718;11.902;2023-03-26T22:49:14;1.93;;;1.60;;
2191;SDS011;1102;49.718;11.902;2023-03-26T22:51:41;2.03;;;1.83;;
2191;SDS011;1102;49.718;11.902;2023-03-26T22:54:09;1.53;;;1.43;;
2191;SDS011;1102;49.718;11.902;2023-03-26T22:56:35;1.53;;;1.10;;
2191;SDS011;1102;49.718;11.902;2023-03-26T22:59:03;2.30;;;1.50;;
2191;SDS011;1102;49.718;11.902;2023-03-26T23:01:29;4.63;;;1.67;;
2191;SDS011;1102;49.718;11.902;2023-03-26T23:03:56;1.77;;;1.40;;
2191;SDS011;1102;49.718;11.902;2023-03-26T23:06:23;1.60;;;1.50;;
2191;SDS011;1102;49.718;11.902;2023-03-26T23:08:50;1.93;;;1.60;;